Time;durP1;ratioP1;P1;durP2;ratioP2;P2;SDS_P1;SDS_P2;PMS_P1;PMS_P2;Temp;Humidity;BMP_temperature;BMP_pressure;BME280_temperature;BME280_humidity;BME280_pressure;Samples;Min_cycle;Max_cycle;Signal;HPM_P1;HPM_P2
2021/09/05 00:01:20;;;;;;;15.35;9.80;;;9.90;99.90;;;;;;4996430;28;20026;-41
2021/09/05 00:03:46;;;;;;;16.48;11.38;;;9.90;99.90;;;;;;4996251;28;20030;-45
2021/09/05 00:06:11;;;;;;;17.20;11.27;;;9.90;99.90;;;;;;4996269;28;20026;-44
2021/09/05 00:08:37;;;;;;;17.17;10.35;;;9.80;99.90;;;;;;4996148;28;20049;-43
2021/09/05 00:11:02;;;;;;;15.90;10.23;;;9.80;99.90;;;;;;4996131;28;20436;-44
2021/09/05 00:13:28;;;;;;;17.45;11.05;;;9.70;99.90;;;;;;4994662;28;20041;-48
2021/09/05 00:15:53;;;;;;;17.05;10.93;;;9.70;99.90;;;;;;4996065;28;20035;-47
2021/09/05 00:18:19;;;;;;;19.17;11.27;;;9.70;99.90;;;;;;4995946;28;20034;-43
2021/09/05 00:20:44;;;;;;;18.20;10.88;;;9.70;99.90;;;;;;4995912;28;20105;-43
2021/09/05 00:23:13;;;;;;;20.30;10.95;;;9.70;99.90;;;;;;4995902;28;20022;-45
2021/09/05 00:25:39;;;;;;;19.40;10.52;;;9.70;99.90;;;;;;4995783;28;20030;-43
2021/09/05 00:28:04;;;;;;;21.50;12.95;;;9.60;99.90;;;;;;4994491;28;20113;-43
2021/09/05 00:30:30;;;;;;;18.67;11.63;;;9.60;99.90;;;;;;4995764;28;20038;-44
2021/09/05 00:32:56;;;;;;;19.33;11.77;;;9.60;99.90;;;;;;4995749;28;20445;-43
2021/09/05 00:35:21;;;;;;;17.10;10.32;;;9.60;99.90;;;;;;4995703;28;20069;-47
2021/09/05 00:37:47;;;;;;;21.15;11.70;;;9.60;99.90;;;;;;4995560;28;20488;-44
2021/09/05 00:40:13;;;;;;;21.60;11.60;;;9.60;99.90;;;;;;4995615;28;20027;-45
2021/09/05 00:42:39;;;;;;;17.80;10.73;;;9.60;99.90;;;;;;4994120;28;20022;-42
2021/09/05 00:45:05;;;;;;;18.83;10.40;;;9.60;99.90;;;;;;4995591;28;20516;-46
2021/09/05 00:47:31;;;;;;;19.63;12.15;;;9.60;99.90;;;;;;4995366;28;20042;-43
2021/09/05 00:49:56;;;;;;;17.50;11.05;;;9.60;99.90;;;;;;4995448;28;20045;-43
2021/09/05 00:52:24;;;;;;;17.90;11.18;;;9.60;99.90;;;;;;4995409;28;20489;-43
2021/09/05 00:54:49;;;;;;;16.02;9.93;;;9.60;99.90;;;;;;4995324;28;20036;-43
2021/09/05 00:57:16;;;;;;;16.80;10.23;;;9.50;99.90;;;;;;4993881;28;20023;-46
2021/09/05 00:59:45;;;;;;;19.27;11.57;;;9.60;99.90;;;;;;4995089;28;20057;-47
2021/09/05 01:02:10;;;;;;;22.25;12.65;;;9.60;99.90;;;;;;4995255;28;20505;-44
2021/09/05 01:04:36;;;;;;;24.75;13.25;;;9.70;99.90;;;;;;4995152;28;20027;-43
2021/09/05 01:07:02;;;;;;;21.65;11.60;;;9.80;99.90;;;;;;4995250;28;20058;-43
2021/09/05 01:09:28;;;;;;;19.75;11.45;;;9.80;99.90;;;;;;4994328;28;20037;-46
2021/09/05 01:11:58;;;;;;;22.00;11.77;;;9.80;99.90;;;;;;4993637;28;20370;-45
2021/09/05 01:14:25;;;;;;;18.88;11.10;;;9.70;99.90;;;;;;4995001;28;20363;-45
2021/09/05 01:16:52;;;;;;;22.40;12.63;;;9.70;99.90;;;;;;4994917;28;20482;-42
2021/09/05 01:19:20;;;;;;;24.50;11.65;;;9.70;99.90;;;;;;4994850;28;20045;-42
2021/09/05 01:21:48;;;;;;;21.40;11.57;;;9.70;99.90;;;;;;4994836;28;20485;-45
2021/09/05 01:24:15;;;;;;;21.83;12.45;;;9.70;99.90;;;;;;4994724;28;20034;-46
2021/09/05 01:26:44;;;;;;;21.80;12.75;;;9.70;99.90;;;;;;4993906;28;20026;-42
2021/09/05 01:29:09;;;;;;;21.63;12.77;;;9.80;99.90;;;;;;4994729;28;20113;-44
2021/09/05 01:31:43;;;;;;;26.63;13.05;;;9.90;99.90;;;;;;4994667;28;20470;-43
2021/09/05 01:34:10;;;;;;;23.17;12.75;;;9.90;99.90;;;;;;4994627;28;20178;-43
2021/09/05 01:36:37;;;;;;;28.33;15.20;;;9.90;99.90;;;;;;4994516;28;20042;-44
2021/09/05 01:39:08;;;;;;;22.08;11.98;;;10.00;99.90;;;;;;4994368;28;20053;-43
2021/09/05 01:41:34;;;;;;;31.15;14.15;;;10.10;99.90;;;;;;4994493;28;20053;-46
2021/09/05 01:44:01;;;;;;;25.40;13.40;;;10.10;99.90;;;;;;4993155;28;20066;-44
2021/09/05 01:46:27;;;;;;;37.92;17.08;;;10.20;99.90;;;;;;4994204;28;20572;-43
2021/09/05 01:48:52;;;;;;;33.83;16.17;;;10.30;99.90;;;;;;4994285;28;20062;-45
2021/09/05 01:51:18;;;;;;;33.45;16.33;;;10.40;99.90;;;;;;4994125;28;20466;-44
2021/09/05 01:53:43;;;;;;;42.35;19.58;;;10.50;99.90;;;;;;4994211;28;20038;-43
2021/09/05 01:56:09;;;;;;;34.55;16.95;;;10.60;99.90;;;;;;4994143;28;20026;-43
2021/09/05 01:58:34;;;;;;;36.78;20.30;;;10.70;99.90;;;;;;4992736;28;20026;-43
2021/09/05 02:01:00;;;;;;;50.50;19.67;;;10.80;99.90;;;;;;4994068;28;20035;-42
2021/09/05 02:03:25;;;;;;;43.83;19.98;;;10.90;99.90;;;;;;4994040;28;20034;-43
2021/09/05 02:05:51;;;;;;;41.70;18.92;;;10.90;99.90;;;;;;4993868;28;20034;-49
2021/09/05 02:08:16;;;;;;;29.63;16.35;;;11.00;99.90;;;;;;4993955;28;20513;-45
2021/09/05 02:10:42;;;;;;;35.72;17.98;;;11.00;99.90;;;;;;4993918;28;20041;-42
2021/09/05 02:13:07;;;;;;;42.33;21.85;;;11.00;99.90;;;;;;4992758;28;20022;-43
2021/09/05 02:15:33;;;;;;;44.53;23.20;;;11.00;99.90;;;;;;4993827;28;20034;-44
2021/09/05 02:17:58;;;;;;;41.05;20.52;;;11.10;99.90;;;;;;4993689;28;20038;-46
2021/09/05 02:20:24;;;;;;;48.55;23.67;;;11.20;99.90;;;;;;4993684;28;20031;-45
2021/09/05 02:22:49;;;;;;;38.70;18.42;;;11.20;99.90;;;;;;4993626;28;20097;-43
2021/09/05 02:25:15;;;;;;;43.75;21.50;;;11.20;99.90;;;;;;4993675;28;20035;-43
2021/09/05 02:27:41;;;;;;;33.65;16.25;;;11.20;99.90;;;;;;4992430;28;20385;-42
2021/09/05 02:30:09;;;;;;;39.70;16.45;;;11.30;99.90;;;;;;4993654;28;20185;-43
2021/09/05 02:32:35;;;;;;;29.10;14.48;;;11.30;99.90;;;;;;4993733;28;20046;-43
2021/09/05 02:35:00;;;;;;;32.00;17.50;;;11.30;99.90;;;;;;4993601;28;20064;-45
2021/09/05 02:37:26;;;;;;;39.72;18.55;;;11.40;99.90;;;;;;4993444;28;20417;-43
2021/09/05 02:39:51;;;;;;;31.75;17.60;;;11.40;99.90;;;;;;4993561;28;20046;-43
2021/09/05 02:42:17;;;;;;;33.42;18.30;;;11.50;99.90;;;;;;4992292;28;20122;-43
2021/09/05 02:44:42;;;;;;;39.80;19.45;;;11.50;99.90;;;;;;4993465;28;20513;-43
2021/09/05 02:47:08;;;;;;;34.28;18.70;;;11.50;99.90;;;;;;4993318;28;20118;-43
2021/09/05 02:49:34;;;;;;;37.40;18.98;;;11.50;99.90;;;;;;4993517;28;20034;-45
2021/09/05 02:51:59;;;;;;;35.45;18.00;;;11.60;99.90;;;;;;4993288;28;20500;-42
2021/09/05 02:54:25;;;;;;;36.67;19.25;;;11.60;99.90;;;;;;4993400;28;20027;-45
2021/09/05 02:56:50;;;;;;;34.45;17.92;;;11.50;99.90;;;;;;4992041;28;20429;-43
2021/09/05 02:59:16;;;;;;;36.97;18.63;;;11.50;99.90;;;;;;4993376;28;20026;-43
2021/09/05 03:01:42;;;;;;;32.40;17.65;;;11.50;99.90;;;;;;4993381;28;20018;-45
2021/09/05 03:04:07;;;;;;;32.90;16.85;;;11.40;99.90;;;;;;4993299;28;20057;-46
2021/09/05 03:06:33;;;;;;;33.92;17.65;;;11.40;99.90;;;;;;4993192;28;20423;-43
2021/09/05 03:08:58;;;;;;;36.15;18.42;;;11.40;99.90;;;;;;4993215;28;20432;-43
2021/09/05 03:11:24;;;;;;;33.65;16.65;;;11.30;99.90;;;;;;4993247;28;20053;-45
2021/09/05 03:13:49;;;;;;;31.90;16.08;;;11.20;99.90;;;;;;4991956;28;20026;-43
2021/09/05 03:16:15;;;;;;;26.75;14.23;;;11.20;99.90;;;;;;4993263;28;20105;-46
2021/09/05 03:18:40;;;;;;;27.63;14.63;;;11.10;99.90;;;;;;4993134;28;20038;-45
2021/09/05 03:21:06;;;;;;;23.85;12.73;;;11.10;99.90;;;;;;4991809;28;20462;-44
2021/09/05 03:23:32;;;;;;;25.42;13.73;;;11.00;99.90;;;;;;4993189;28;20073;-43
2021/09/05 03:25:57;;;;;;;25.35;14.70;;;11.00;99.90;;;;;;4993098;28;20195;-45
2021/09/05 03:28:23;;;;;;;21.63;12.90;;;11.00;99.90;;;;;;4991851;28;20369;-43
2021/09/05 03:30:48;;;;;;;19.73;10.60;;;10.90;99.90;;;;;;4993092;28;20046;-43
2021/09/05 03:33:14;;;;;;;16.85;10.38;;;10.90;99.90;;;;;;4996711;28;20046;-43
2021/09/05 03:35:39;;;;;;;15.30;9.82;;;10.80;99.90;;;;;;4996696;28;20030;-42
2021/09/05 03:38:05;;;;;;;14.68;9.35;;;10.80;99.90;;;;;;4996650;28;20405;-43
2021/09/05 03:40:30;;;;;;;16.67;9.98;;;10.70;99.90;;;;;;4996712;28;20392;-43
2021/09/05 03:42:56;;;;;;;22.65;11.43;;;10.70;99.90;;;;;;4995382;28;20034;-43
2021/09/05 03:45:21;;;;;;;21.23;10.07;;;10.60;99.90;;;;;;4996653;28;20034;-43
2021/09/05 03:47:47;;;;;;;16.23;10.13;;;10.60;99.90;;;;;;4995086;28;20509;-42
2021/09/05 03:50:12;;;;;;;14.30;9.73;;;10.60;99.90;;;;;;4996415;28;20038;-45
2021/09/05 03:52:38;;;;;;;18.35;9.15;;;10.50;99.90;;;;;;4996487;28;20092;-44
2021/09/05 03:55:05;;;;;;;20.15;9.40;;;10.50;99.90;;;;;;4996385;28;20058;-43
2021/09/05 03:57:31;;;;;;;15.68;8.82;;;10.50;99.90;;;;;;4995089;28;20054;-42
2021/09/05 03:59:56;;;;;;;17.05;9.02;;;10.40;99.90;;;;;;4996345;28;20041;-43
2021/09/05 04:02:22;;;;;;;13.48;8.30;;;10.40;99.90;;;;;;4996410;28;20046;-43
2021/09/05 04:04:48;;;;;;;13.07;7.53;;;10.30;99.90;;;;;;4996209;28;20378;-43
2021/09/05 04:07:17;;;;;;;12.88;7.97;;;10.30;99.90;;;;;;4996267;28;20030;-43
2021/09/05 04:12:26;;;;;;;14.63;8.30;;;10.20;99.90;;;;;;4995110;28;20114;-46
2021/09/05 04:14:52;;;;;;;13.02;7.10;;;10.20;99.90;;;;;;4996138;28;20109;-43
2021/09/05 04:17:17;;;;;;;13.18;7.43;;;10.20;99.90;;;;;;4995936;28;20026;-43
2021/09/05 04:19:43;;;;;;;9.88;5.85;;;10.10;99.90;;;;;;4995996;28;20401;-45
2021/09/05 04:22:08;;;;;;;10.02;6.28;;;10.10;99.90;;;;;;4995980;28;20469;-43
2021/09/05 04:24:34;;;;;;;13.07;6.50;;;10.00;99.90;;;;;;4995944;28;20039;-46
2021/09/05 04:26:59;;;;;;;12.15;7.25;;;10.00;99.90;;;;;;4994648;28;20038;-45
2021/09/05 04:29:25;;;;;;;10.35;6.10;;;10.00;99.90;;;;;;4995877;28;20037;-43
2021/09/05 04:31:51;;;;;;;9.68;6.03;;;10.00;99.90;;;;;;4995817;28;20030;-45
2021/09/05 04:34:16;;;;;;;11.25;6.00;;;9.90;99.90;;;;;;4995928;28;20543;-46
2021/09/05 04:36:42;;;;;;;8.57;5.13;;;9.90;99.90;;;;;;4995707;28;20038;-44
2021/09/05 04:39:07;;;;;;;7.15;5.30;;;9.90;99.90;;;;;;4995594;28;20038;-43
2021/09/05 04:41:33;;;;;;;9.25;5.60;;;9.90;99.90;;;;;;4995289;28;20022;-45
2021/09/05 04:43:58;;;;;;;9.50;5.03;;;9.90;99.90;;;;;;4993755;28;20033;-44
2021/09/05 04:46:24;;;;;;;8.73;4.97;;;9.90;99.90;;;;;;4995368;28;20086;-45
2021/09/05 04:48:49;;;;;;;9.48;6.00;;;9.90;99.90;;;;;;4995400;28;20453;-46
2021/09/05 04:51:15;;;;;;;10.25;4.95;;;9.90;99.90;;;;;;4995407;28;20022;-43
2021/09/05 04:53:40;;;;;;;10.18;5.30;;;10.00;99.90;;;;;;4995439;28;20026;-44
2021/09/05 04:56:06;;;;;;;10.15;5.00;;;10.00;99.90;;;;;;4995289;28;20382;-45
2021/09/05 04:58:32;;;;;;;10.00;5.60;;;10.00;99.90;;;;;;4994005;28;20385;-46
2021/09/05 05:00:57;;;;;;;11.02;5.63;;;10.10;99.90;;;;;;4995281;28;20101;-45
2021/09/05 05:03:23;;;;;;;10.75;6.13;;;10.10;99.90;;;;;;4995055;28;20027;-42
2021/09/05 05:05:48;;;;;;;9.85;6.13;;;10.20;99.90;;;;;;4995142;28;20045;-45
2021/09/05 05:08:14;;;;;;;5.72;4.35;;;10.30;99.90;;;;;;4995041;28;20497;-45
2021/09/05 05:10:40;;;;;;;10.07;5.00;;;10.30;99.90;;;;;;4995070;28;20030;-42
2021/09/05 05:13:05;;;;;;;7.97;5.05;;;10.40;99.90;;;;;;4993677;28;20034;-46
2021/09/05 05:15:31;;;;;;;7.78;4.18;;;10.50;99.90;;;;;;4995056;28;20030;-43
2021/09/05 05:17:56;;;;;;;12.43;5.63;;;10.60;99.90;;;;;;4994724;28;20037;-43
2021/09/05 05:20:22;;;;;;;7.28;4.53;;;10.60;99.90;;;;;;4994861;28;20027;-44
2021/09/05 05:22:48;;;;;;;7.07;4.68;;;10.80;99.90;;;;;;4995023;28;20030;-42
2021/09/05 05:25:13;;;;;;;9.43;4.60;;;10.90;99.90;;;;;;4994674;28;20034;-46
2021/09/05 05:27:39;;;;;;;9.32;4.35;;;11.00;99.90;;;;;;4993467;28;20421;-45
2021/09/05 05:30:05;;;;;;;7.13;4.70;;;11.10;99.90;;;;;;4994675;28;20031;-45
2021/09/05 05:32:31;;;;;;;6.15;4.20;;;11.10;99.90;;;;;;4994612;28;20027;-45
2021/09/05 05:34:56;;;;;;;6.05;3.67;;;11.30;99.90;;;;;;4994643;28;20034;-45
2021/09/05 05:37:22;;;;;;;6.30;4.15;;;11.40;99.90;;;;;;4994570;28;20076;-44
2021/09/05 05:39:47;;;;;;;8.93;4.28;;;11.60;99.90;;;;;;4994430;28;20033;-48
2021/09/05 05:42:13;;;;;;;7.00;4.05;;;11.80;99.90;;;;;;4993254;28;20054;-47
2021/09/05 05:44:38;;;;;;;8.30;3.80;;;12.10;99.90;;;;;;4994341;28;20027;-44
2021/09/05 05:47:04;;;;;;;7.75;4.85;;;12.30;99.90;;;;;;4994105;28;20176;-46
2021/09/05 05:49:32;;;;;;;8.95;4.20;;;12.50;99.90;;;;;;4994354;28;20030;-45
2021/09/05 05:51:58;;;;;;;5.65;3.72;;;12.90;99.90;;;;;;4994356;28;20073;-42
2021/09/05 05:54:23;;;;;;;6.95;3.97;;;13.10;99.90;;;;;;4993921;28;20058;-46
2021/09/05 05:56:48;;;;;;;4.95;3.72;;;13.30;99.90;;;;;;4992908;28;20034;-46
2021/09/05 05:59:14;;;;;;;7.75;3.67;;;13.80;99.90;;;;;;4994083;28;20058;-45
2021/09/05 06:01:41;;;;;;;7.78;3.95;;;14.40;99.90;;;;;;4994049;28;20029;-46
2021/09/05 06:04:08;;;;;;;6.68;4.38;;;14.70;99.90;;;;;;4994087;28;20478;-44
2021/09/05 06:06:33;;;;;;;6.07;3.75;;;14.90;99.90;;;;;;4994049;28;20069;-45
2021/09/05 06:09:00;;;;;;;7.13;4.15;;;15.20;99.90;;;;;;4994038;28;20057;-44
2021/09/05 06:11:26;;;;;;;7.15;3.60;;;15.40;99.90;;;;;;4994065;28;20022;-46
2021/09/05 06:13:52;;;;;;;5.25;3.53;;;15.40;99.90;;;;;;4992722;28;20388;-45
2021/09/05 06:16:17;;;;;;;5.80;3.45;;;15.60;99.90;;;;;;4993702;28;20038;-43
2021/09/05 06:18:43;;;;;;;6.95;3.88;;;16.20;99.90;;;;;;4993754;28;20070;-46
2021/09/05 06:21:08;;;;;;;7.93;3.83;;;16.00;99.90;;;;;;4993780;28;20035;-44
2021/09/05 06:23:34;;;;;;;5.53;2.88;;;16.20;99.90;;;;;;4992509;28;20401;-48
2021/09/05 06:25:59;;;;;;;7.53;3.75;;;16.90;99.90;;;;;;4993770;28;20026;-45
2021/09/05 06:28:25;;;;;;;6.35;3.42;;;17.20;99.90;;;;;;4992440;28;20023;-45
2021/09/05 06:30:50;;;;;;;9.65;4.75;;;17.80;99.90;;;;;;4993610;28;20054;-44
2021/09/05 06:33:16;;;;;;;7.28;3.67;;;18.40;99.90;;;;;;4993599;28;20197;-44
2021/09/05 06:35:41;;;;;;;6.03;3.63;;;18.50;99.90;;;;;;4993633;28;20023;-47
2021/09/05 06:38:07;;;;;;;6.32;3.83;;;18.70;99.90;;;;;;4993495;28;20470;-45
2021/09/05 06:40:32;;;;;;;9.20;4.43;;;19.10;99.90;;;;;;4993569;28;20441;-44
2021/09/05 06:42:58;;;;;;;5.93;3.90;;;19.50;99.90;;;;;;4992271;28;20027;-44
2021/09/05 06:45:23;;;;;;;5.30;3.50;;;20.20;99.90;;;;;;4993389;28;20077;-47
2021/09/05 06:47:49;;;;;;;6.25;3.60;;;20.40;99.90;;;;;;4993312;28;20053;-43
2021/09/05 06:50:14;;;;;;;4.88;3.30;;;21.10;99.90;;;;;;4993694;28;20113;-46
2021/09/05 06:52:40;;;;;;;6.55;4.10;;;21.10;99.90;;;;;;4993421;28;20057;-46
2021/09/05 06:55:06;;;;;;;6.38;3.78;;;20.80;97.30;;;;;;4993368;28;20113;-46
2021/09/05 06:57:31;;;;;;;8.50;4.40;;;20.50;91.40;;;;;;4992099;28;20033;-46
2021/09/05 06:59:57;;;;;;;6.13;3.90;;;20.60;92.50;;;;;;4993321;28;20030;-46
2021/09/05 07:02:22;;;;;;;5.97;3.85;;;21.00;94.10;;;;;;4993295;28;20374;-47
2021/09/05 07:04:48;;;;;;;7.40;3.88;;;21.30;86.50;;;;;;4993309;28;20027;-45
2021/09/05 07:07:14;;;;;;;6.57;4.22;;;21.50;92.70;;;;;;4995545;28;20470;-44
2021/09/05 07:09:40;;;;;;;6.85;3.67;;;21.80;91.90;;;;;;4997395;28;20165;-44
2021/09/05 07:12:05;;;;;;;5.03;3.35;;;21.70;83.80;;;;;;4996004;28;20089;-44
2021/09/05 07:14:31;;;;;;;5.40;3.22;;;22.00;88.90;;;;;;4997296;28;20034;-47
2021/09/05 07:16:56;;;;;;;6.50;3.65;;;21.80;90.80;;;;;;4997084;28;20030;-46
2021/09/05 07:19:22;;;;;;;7.05;3.35;;;21.50;82.20;;;;;;4997080;28;20033;-47
2021/09/05 07:21:47;;;;;;;6.53;3.72;;;21.30;86.20;;;;;;4997067;28;20117;-46
2021/09/05 07:24:13;;;;;;;5.03;3.00;;;21.10;89.30;;;;;;4997000;28;20064;-45
2021/09/05 07:26:39;;;;;;;5.25;3.58;;;20.90;77.30;;;;;;4995749;28;20521;-44
2021/09/05 07:29:05;;;;;;;7.43;4.47;;;20.50;88.10;;;;;;4997004;28;20042;-44
2021/09/05 07:31:31;;;;;;;5.45;3.70;;;20.80;84.20;;;;;;4996735;28;20076;-46
2021/09/05 07:33:56;;;;;;;6.65;4.50;;;20.60;87.10;;;;;;4996910;28;20376;-46
2021/09/05 07:36:21;;;;;;;8.10;4.75;;;20.40;84.50;;;;;;4996802;28;20034;-46
2021/09/05 07:38:47;;;;;;;6.38;3.90;;;20.50;84.70;;;;;;4996713;28;20026;-44
2021/09/05 07:41:13;;;;;;;4.60;3.53;;;21.00;82.50;;;;;;4996714;28;20026;-44
2021/09/05 07:43:40;;;;;;;7.63;3.95;;;21.20;80.70;;;;;;4995447;28;20026;-45
2021/09/05 07:46:05;;;;;;;5.90;4.13;;;21.70;80.90;;;;;;4996415;28;20045;-51
2021/09/05 07:48:31;;;;;;;6.85;4.15;;;22.40;78.50;;;;;;4996514;28;20042;-45
2021/09/05 07:50:56;;;;;;;10.18;5.65;;;22.70;76.80;;;;;;4996544;28;20092;-48
2021/09/05 07:53:22;;;;;;;5.20;3.67;;;23.60;64.30;;;;;;4996442;28;20041;-45
2021/09/05 07:55:47;;;;;;;6.85;4.03;;;23.30;71.90;;;;;;4996445;28;20041;-46
2021/09/05 07:58:13;;;;;;;5.55;3.97;;;24.20;69.50;;;;;;4995070;28;20525;-45
2021/09/05 08:00:38;;;;;;;6.50;4.57;;;24.00;62.90;;;;;;4996245;28;20145;-46
2021/09/05 08:03:04;;;;;;;10.38;4.82;;;24.00;64.00;;;;;;4996322;28;20105;-47
2021/09/05 08:05:29;;;;;;;8.15;5.15;;;24.70;62.60;;;;;;4996318;28;20108;-43
2021/09/05 08:07:55;;;;;;;7.10;4.95;;;24.20;62.20;;;;;;4996269;28;20026;-46
2021/09/05 08:10:21;;;;;;;7.90;4.70;;;23.80;56.50;;;;;;4996178;28;20110;-44
2021/09/05 08:12:46;;;;;;;7.97;5.03;;;22.70;63.70;;;;;;4994887;28;20031;-46
2021/09/05 08:15:12;;;;;;;9.52;6.00;;;22.60;67.60;;;;;;4996026;28;20026;-46
2021/09/05 08:17:37;;;;;;;8.27;6.05;;;23.10;61.40;;;;;;4995778;28;20034;-45
2021/09/05 08:20:04;;;;;;;8.40;5.18;;;23.10;62.50;;;;;;4996060;28;20469;-46
2021/09/05 08:22:30;;;;;;;8.20;5.10;;;23.60;60.70;;;;;;4995969;28;20536;-44
2021/09/05 08:24:56;;;;;;;9.75;5.15;;;24.30;61.00;;;;;;4995948;28;20101;-47
2021/09/05 08:27:21;;;;;;;9.30;5.30;;;24.60;58.10;;;;;;4994602;28;20102;-44
2021/09/05 08:29:47;;;;;;;9.32;6.10;;;24.30;55.20;;;;;;4995811;28;20030;-46
2021/09/05 08:32:12;;;;;;;7.70;5.32;;;24.40;56.70;;;;;;4995883;28;20054;-47
2021/09/05 08:34:37;;;;;;;7.80;6.00;;;24.20;57.20;;;;;;4995730;28;20553;-48
2021/09/05 08:37:04;;;;;;;6.90;5.03;;;24.30;56.80;;;;;;4995800;28;20146;-45
2021/09/05 08:39:30;;;;;;;6.20;5.13;;;24.70;56.30;;;;;;4995590;28;20114;-46
2021/09/05 08:41:57;;;;;;;8.55;5.00;;;24.10;56.60;;;;;;4994407;28;20244;-44
2021/09/05 08:44:24;;;;;;;6.63;5.10;;;23.80;58.00;;;;;;4995500;28;20137;-47
2021/09/05 08:46:52;;;;;;;8.23;5.38;;;23.80;56.00;;;;;;4995545;28;20137;-47
2021/09/05 08:49:19;;;;;;;9.07;5.38;;;23.70;54.90;;;;;;4995477;28;20033;-44
2021/09/05 08:51:44;;;;;;;10.50;6.25;;;23.80;56.00;;;;;;4995553;28;20022;-46
2021/09/05 08:54:10;;;;;;;7.43;5.13;;;23.50;55.90;;;;;;4995400;28;20045;-45
2021/09/05 08:56:35;;;;;;;9.93;5.47;;;23.50;53.60;;;;;;4994062;28;20034;-46
2021/09/05 08:59:01;;;;;;;8.20;5.15;;;22.70;56.60;;;;;;4995185;28;20037;-44
2021/09/05 09:01:28;;;;;;;7.32;5.20;;;22.90;58.00;;;;;;4995238;28;20029;-44
2021/09/05 09:04:05;;;;;;;7.75;5.30;;;23.30;56.00;;;;;;4995337;28;20037;-44
2021/09/05 09:06:39;;;;;;;7.63;4.57;;;23.90;54.10;;;;;;4995210;28;20026;-46
2021/09/05 09:09:05;;;;;;;10.27;6.18;;;24.50;54.00;;;;;;4995195;28;20035;-45
2021/09/05 09:11:54;;;;;;;10.63;5.88;;;24.40;50.00;;;;;;4993721;28;20385;-46
2021/09/05 09:14:22;;;;;;;7.75;6.05;;;24.20;49.60;;;;;;4995340;28;20027;-46
2021/09/05 09:16:48;;;;;;;8.57;5.50;;;24.20;49.70;;;;;;4994997;28;20119;-46
2021/09/05 09:19:28;;;;;;;9.13;5.75;;;24.50;50.30;;;;;;4994971;28;20037;-48
2021/09/05 09:21:55;;;;;;;7.97;5.97;;;24.60;48.00;;;;;;4994862;28;20022;-47
2021/09/05 09:24:22;;;;;;;7.53;5.00;;;24.60;47.20;;;;;;4994763;28;20041;-48
2021/09/05 09:27:05;;;;;;;7.78;4.97;;;24.70;48.90;;;;;;4993497;28;20536;-49
2021/09/05 09:29:33;;;;;;;8.02;4.28;;;24.60;48.80;;;;;;4994063;28;20033;-47
2021/09/05 09:32:07;;;;;;;8.70;4.75;;;24.60;50.90;;;;;;4994711;28;20029;-48
2021/09/05 09:34:50;;;;;;;8.17;5.67;;;24.60;50.20;;;;;;4994559;28;20390;-46
2021/09/05 09:37:21;;;;;;;9.13;5.88;;;24.80;47.70;;;;;;4994611;28;20030;-44
2021/09/05 09:39:48;;;;;;;7.40;5.15;;;24.60;48.00;;;;;;4994429;28;20053;-48
2021/09/05 09:42:40;;;;;;;8.68;5.82;;;24.30;49.30;;;;;;4993231;28;20377;-46
2021/09/05 09:45:14;;;;;;;7.07;5.47;;;23.90;48.90;;;;;;4994297;28;20529;-48
2021/09/05 09:47:46;;;;;;;8.50;6.03;;;23.60;50.20;;;;;;4994226;28;20047;-46
2021/09/05 09:50:14;;;;;;;9.63;5.53;;;23.60;50.90;;;;;;4994288;28;20026;-44
2021/09/05 09:52:40;;;;;;;11.50;6.20;;;23.90;51.50;;;;;;4994245;28;20462;-46
2021/09/05 09:55:06;;;;;;;6.57;4.53;;;23.90;51.00;;;;;;4994268;28;20034;-44
2021/09/05 09:57:32;;;;;;;8.20;5.13;;;23.90;49.90;;;;;;4992854;28;20035;-44
2021/09/05 10:00:00;;;;;;;7.78;5.57;;;24.00;50.90;;;;;;4994124;28;20088;-43
2021/09/05 10:02:27;;;;;;;7.40;5.35;;;24.00;49.60;;;;;;4994136;28;20025;-45
2021/09/05 10:04:53;;;;;;;8.38;6.15;;;24.10;49.80;;;;;;4994236;28;20026;-44
2021/09/05 10:07:21;;;;;;;9.57;6.07;;;23.70;49.40;;;;;;4994167;28;20481;-46
2021/09/05 10:09:48;;;;;;;9.02;6.43;;;23.60;51.30;;;;;;4993960;28;20038;-44
2021/09/05 10:12:15;;;;;;;11.43;6.13;;;23.10;52.10;;;;;;4992747;28;20121;-46
2021/09/05 10:14:43;;;;;;;9.70;6.97;;;22.60;55.20;;;;;;4993931;28;20026;-45
2021/09/05 10:17:11;;;;;;;8.50;5.78;;;22.20;56.50;;;;;;4993935;28;20057;-45
2021/09/05 10:19:38;;;;;;;9.98;6.32;;;22.10;58.20;;;;;;4993753;28;20061;-44
2021/09/05 10:22:04;;;;;;;7.90;5.35;;;21.80;59.40;;;;;;4993929;28;20022;-43
2021/09/05 10:24:42;;;;;;;8.65;5.55;;;21.70;60.80;;;;;;4993686;28;20041;-42
2021/09/05 10:27:07;;;;;;;7.38;5.43;;;21.70;63.00;;;;;;4992464;28;20410;-45
2021/09/05 10:29:33;;;;;;;7.03;5.53;;;21.60;63.30;;;;;;4993672;28;20114;-45
2021/09/05 10:31:59;;;;;;;10.73;6.75;;;21.60;63.70;;;;;;4993615;28;20105;-47
2021/09/05 10:34:33;;;;;;;8.63;5.95;;;21.50;64.40;;;;;;4993620;28;20030;-48
2021/09/05 10:37:07;;;;;;;9.30;5.72;;;21.40;64.80;;;;;;4993662;28;20165;-46
2021/09/05 10:39:33;;;;;;;7.55;5.43;;;21.30;66.90;;;;;;4993471;28;20393;-44
2021/09/05 10:41:59;;;;;;;9.13;6.07;;;21.30;68.60;;;;;;4992073;28;20113;-46
2021/09/05 10:44:24;;;;;;;9.60;5.60;;;21.20;67.50;;;;;;4992705;28;20358;-47
2021/09/05 10:46:52;;;;;;;12.65;6.63;;;21.00;69.80;;;;;;4993241;28;20052;-44
2021/09/05 10:49:39;;;;;;;11.02;7.53;;;20.90;70.40;;;;;;4993364;28;20053;-47
2021/09/05 10:52:06;;;;;;;14.48;7.15;;;20.70;71.50;;;;;;4993334;28;20560;-44
2021/09/05 10:54:31;;;;;;;10.13;6.18;;;20.70;70.10;;;;;;4992733;28;20034;-47
2021/09/05 10:56:59;;;;;;;11.63;6.10;;;20.70;70.60;;;;;;4992072;28;20033;-45
2021/09/05 10:59:26;;;;;;;8.55;6.00;;;20.70;71.40;;;;;;4993349;28;20045;-46
2021/09/05 11:01:52;;;;;;;11.30;6.97;;;20.70;72.70;;;;;;4993285;28;20026;-44
2021/09/05 11:04:24;;;;;;;11.50;7.22;;;20.60;73.40;;;;;;4993167;28;20036;-46
2021/09/05 11:06:53;;;;;;;12.50;7.93;;;20.60;73.40;;;;;;4993209;28;20025;-44
2021/09/05 11:09:19;;;;;;;11.85;7.00;;;20.50;74.70;;;;;;4993319;28;20389;-47
2021/09/05 11:12:07;;;;;;;11.15;7.22;;;20.40;73.40;;;;;;4991906;28;20034;-49
2021/09/05 11:14:40;;;;;;;11.98;7.05;;;20.30;77.00;;;;;;4993220;28;20027;-47
2021/09/05 11:17:09;;;;;;;11.43;6.82;;;20.40;75.80;;;;;;4993295;28;20035;-46
2021/09/05 11:19:35;;;;;;;9.18;6.88;;;20.50;76.10;;;;;;4992365;28;20113;-45
2021/09/05 11:22:07;;;;;;;10.43;7.07;;;20.60;75.60;;;;;;4993078;28;20065;-44
2021/09/05 11:24:32;;;;;;;12.18;7.20;;;20.60;75.20;;;;;;4993047;28;20101;-46
2021/09/05 11:27:02;;;;;;;9.57;6.53;;;20.70;75.40;;;;;;4991745;28;20102;-46
2021/09/05 11:29:29;;;;;;;9.98;7.43;;;20.80;76.60;;;;;;4992336;28;20034;-44
2021/09/05 11:32:00;;;;;;;12.55;6.82;;;20.70;74.10;;;;;;4992544;28;20035;-47
2021/09/05 11:34:26;;;;;;;10.18;6.93;;;20.70;76.80;;;;;;4993100;28;20056;-43
2021/09/05 11:36:52;;;;;;;10.80;7.03;;;20.80;75.80;;;;;;4993081;28;20533;-44
2021/09/05 11:39:17;;;;;;;11.23;7.10;;;20.80;75.80;;;;;;4993055;28;20126;-46
2021/09/05 11:41:43;;;;;;;16.83;6.63;;;20.80;75.90;;;;;;4991434;28;20070;-44
2021/09/05 11:44:09;;;;;;;10.75;6.90;;;20.80;74.70;;;;;;4992969;28;20081;-46
2021/09/05 11:46:34;;;;;;;11.70;7.13;;;20.80;75.20;;;;;;4992753;28;20401;-46
2021/09/05 11:49:02;;;;;;;13.02;7.65;;;20.80;75.10;;;;;;4992990;28;20038;-47
2021/09/05 11:51:29;;;;;;;14.98;8.45;;;20.90;74.90;;;;;;4993062;28;20022;-46
2021/09/05 11:54:00;;;;;;;15.40;9.43;;;20.90;73.90;;;;;;4995949;28;20030;-46
2021/09/05 11:56:29;;;;;;;17.05;9.68;;;20.90;71.20;;;;;;4995093;28;20033;-46
2021/09/05 11:58:54;;;;;;;15.65;8.43;;;21.00;68.90;;;;;;4996334;28;20153;-46
2021/09/05 12:01:20;;;;;;;11.35;8.27;;;21.00;70.90;;;;;;4996389;28;20489;-49
2021/09/05 12:03:45;;;;;;;13.45;8.80;;;21.10;71.60;;;;;;4996298;28;20491;-46
2021/09/05 12:06:12;;;;;;;14.00;8.45;;;21.10;70.30;;;;;;4996545;28;20085;-47
2021/09/05 12:08:38;;;;;;;13.95;8.20;;;21.10;68.70;;;;;;4996195;28;20381;-47
2021/09/05 12:11:07;;;;;;;11.27;7.97;;;21.20;66.70;;;;;;4996049;28;20058;-47
2021/09/05 12:13:49;;;;;;;12.98;8.65;;;21.20;68.50;;;;;;4994921;28;20034;-44
2021/09/05 12:16:23;;;;;;;15.77;9.75;;;21.30;66.30;;;;;;4996218;28;20038;-47
2021/09/05 12:19:06;;;;;;;14.27;8.75;;;21.30;64.70;;;;;;4996022;28;20218;-44
2021/09/05 12:21:34;;;;;;;14.80;9.70;;;21.30;65.50;;;;;;4995962;28;20481;-44
2021/09/05 12:23:59;;;;;;;9.80;7.53;;;21.40;65.40;;;;;;4995977;28;20113;-43
2021/09/05 12:26:25;;;;;;;12.23;7.72;;;21.40;66.10;;;;;;4994681;28;20057;-43
2021/09/05 12:28:59;;;;;;;11.57;7.97;;;21.40;65.70;;;;;;4995844;28;20454;-44
2021/09/05 12:31:42;;;;;;;12.80;8.23;;;21.40;64.40;;;;;;4995889;28;20030;-47
2021/09/05 12:34:09;;;;;;;11.25;8.07;;;21.50;63.40;;;;;;4995869;28;20462;-46
2021/09/05 12:36:35;;;;;;;14.10;8.45;;;21.40;64.90;;;;;;4995791;28;20058;-45
2021/09/05 12:39:01;;;;;;;12.45;8.18;;;21.40;63.20;;;;;;4995583;28;20108;-43
2021/09/05 12:41:31;;;;;;;15.50;8.27;;;21.30;64.00;;;;;;4993211;28;20031;-45